Time;durP1;ratioP1;P1;durP2;ratioP2;P2;SDS_P1;SDS_P2;PMS_P1;PMS_P2;Temp;Humidity;BMP_temperature;BMP_pressure;BME280_temperature;BME280_humidity;BME280_pressure;Samples;Min_cycle;Max_cycle;Signal;HPM_P1;HPM_P2
2023/01/01 00:02:13;;;;;;;138.57;77.38;;;230.60;2252.80;;;;;;5092484;28;20031;-64
2023/01/01 00:04:38;;;;;;;62.85;36.30;;;230.60;2252.80;;;;;;5092861;28;20028;-64
2023/01/01 00:07:04;;;;;;;79.28;49.65;;;230.60;2252.80;;;;;;5092656;28;20017;-64
2023/01/01 00:12:14;;;;;;;68.68;43.22;;;230.80;2252.80;;;;;;5092354;28;20035;-63
2023/01/01 00:14:42;;;;;;;74.10;45.22;;;230.60;2252.80;;;;;;5092224;28;20044;-62
2023/01/01 00:17:08;;;;;;;96.35;64.47;;;231.10;2252.80;;;;;;5092415;28;20031;-63
2023/01/01 00:19:34;;;;;;;143.98;98.10;;;230.50;2252.80;;;;;;5091971;28;20115;-64
2023/01/01 00:21:59;;;;;;;141.32;89.43;;;230.60;2252.80;;;;;;5092267;28;20024;-64
2023/01/01 00:24:25;;;;;;;190.90;110.88;;;230.50;2252.80;;;;;;5092571;28;20039;-64
2023/01/01 00:26:51;;;;;;;102.55;58.05;;;230.50;2252.80;;;;;;5092127;28;20454;-64
2023/01/01 00:29:16;;;;;;;142.30;80.32;;;230.50;2252.80;;;;;;5092074;28;20023;-64
2023/01/01 00:31:42;;;;;;;265.60;164.32;;;230.50;2252.80;;;;;;5091674;28;20024;-63
2023/01/01 00:34:09;;;;;;;220.52;129.90;;;230.60;2252.80;;;;;;5092066;28;20107;-63
2023/01/01 00:36:34;;;;;;;245.00;136.68;;;230.60;2252.80;;;;;;5091892;28;20024;-64
2023/01/01 00:39:01;;;;;;;220.60;131.85;;;230.60;2252.80;;;;;;5091842;28;20038;-64
2023/01/01 00:41:27;;;;;;;187.50;118.18;;;230.50;2252.80;;;;;;5091834;28;20024;-63
2023/01/01 00:43:53;;;;;;;159.50;103.05;;;230.50;2252.80;;;;;;5091709;28;20056;-64
2023/01/01 00:46:18;;;;;;;194.88;112.05;;;230.50;2252.80;;;;;;5091856;28;20099;-64
2023/01/01 00:48:44;;;;;;;172.00;108.35;;;230.50;2252.80;;;;;;5091806;28;20503;-63
2023/01/01 00:51:10;;;;;;;157.82;99.40;;;230.60;2252.80;;;;;;5091766;28;20021;-64
2023/01/01 00:53:36;;;;;;;98.47;65.22;;;230.60;2252.80;;;;;;5091451;28;20427;-63
2023/01/01 00:56:02;;;;;;;115.50;60.10;;;230.60;2252.80;;;;;;5091543;28;20032;-65
2023/01/01 00:58:28;;;;;;;81.50;44.22;;;230.60;2252.80;;;;;;5091562;28;20099;-63
2023/01/01 01:00:54;;;;;;;55.42;30.88;;;230.50;2252.80;;;;;;5091256;28;20154;-64
2023/01/01 01:03:26;;;;;;;56.05;33.72;;;230.50;2252.80;;;;;;5091655;28;20024;-63
2023/01/01 01:06:08;;;;;;;92.95;49.28;;;230.50;2252.80;;;;;;5090806;28;20038;-64
2023/01/01 01:08:36;;;;;;;131.45;70.85;;;230.50;2252.80;;;;;;5091163;28;20080;-64
2023/01/01 01:11:06;;;;;;;63.45;37.78;;;230.50;2252.80;;;;;;5091143;28;20028;-63
2023/01/01 01:13:32;;;;;;;87.53;50.65;;;230.60;2252.80;;;;;;5091086;28;20482;-64
2023/01/01 01:15:58;;;;;;;104.57;59.22;;;230.50;2252.80;;;;;;5091113;28;20106;-64
2023/01/01 01:18:24;;;;;;;59.08;35.70;;;230.50;2252.80;;;;;;5091166;28;20023;-64
2023/01/01 01:20:51;;;;;;;46.97;30.73;;;230.50;2252.80;;;;;;5091363;28;20031;-64
2023/01/01 01:23:17;;;;;;;69.40;42.33;;;230.50;2252.80;;;;;;5091292;28;20390;-63
2023/01/01 01:25:42;;;;;;;90.63;55.70;;;230.50;2252.80;;;;;;5090948;28;20016;-64
2023/01/01 01:28:08;;;;;;;188.75;115.20;;;230.50;2252.80;;;;;;5090914;28;20060;-63
2023/01/01 01:30:36;;;;;;;144.95;84.75;;;230.50;2252.80;;;;;;5090775;28;20055;-64
2023/01/01 01:33:01;;;;;;;112.32;65.75;;;230.50;2252.80;;;;;;5090782;28;20441;-64
2023/01/01 01:35:28;;;;;;;111.63;66.15;;;230.50;2252.80;;;;;;5091021;28;20064;-64
2023/01/01 01:37:54;;;;;;;132.10;81.63;;;230.40;2252.80;;;;;;5090679;28;20023;-64
2023/01/01 01:40:20;;;;;;;63.88;36.00;;;230.40;2252.80;;;;;;5090695;28;20028;-63
2023/01/01 01:42:47;;;;;;;92.35;48.90;;;230.80;2252.80;;;;;;5090533;28;20065;-64
2023/01/01 01:45:13;;;;;;;91.85;49.15;;;230.40;2252.80;;;;;;5090452;28;20051;-64
2023/01/01 01:47:47;;;;;;;215.63;112.43;;;230.50;2252.80;;;;;;5090982;28;20035;-63
2023/01/01 01:50:33;;;;;;;225.63;115.15;;;230.40;2252.80;;;;;;5090527;28;20028;-64
2023/01/01 01:53:04;;;;;;;175.75;93.97;;;230.40;2252.80;;;;;;5090451;28;20474;-64
2023/01/01 01:55:33;;;;;;;239.45;136.65;;;205.70;2252.80;;;;;;5090173;28;20148;-64
2023/01/01 01:58:00;;;;;;;129.43;77.05;;;205.70;2252.80;;;;;;5090576;28;20020;-64
2023/01/01 02:00:26;;;;;;;105.13;59.38;;;205.60;2252.80;;;;;;5090490;28;20434;-64
2023/01/01 02:03:15;;;;;;;72.95;43.30;;;205.60;2252.80;;;;;;5090338;28;20021;-64
2023/01/01 02:05:41;;;;;;;109.18;62.80;;;205.50;2252.80;;;;;;5089838;28;20028;-64
2023/01/01 02:08:08;;;;;;;103.80;64.50;;;205.60;2252.80;;;;;;5090472;28;20028;-64
2023/01/01 02:10:34;;;;;;;254.25;157.00;;;205.60;2252.80;;;;;;5090008;28;20020;-63
2023/01/01 02:13:00;;;;;;;186.07;117.10;;;205.50;2252.80;;;;;;5090292;28;20043;-64
2023/01/01 02:15:32;;;;;;;122.63;70.88;;;205.50;2252.80;;;;;;5090268;28;20032;-64
2023/01/01 02:18:02;;;;;;;59.88;38.65;;;205.50;2252.80;;;;;;5090336;28;20026;-63
2023/01/01 02:20:33;;;;;;;71.50;40.30;;;205.50;2252.80;;;;;;5090130;28;20488;-63
2023/01/01 02:23:27;;;;;;;144.98;88.75;;;205.40;2252.80;;;;;;5090487;28;20016;-64
2023/01/01 02:26:17;;;;;;;134.32;81.45;;;205.40;2252.80;;;;;;5090100;28;20021;-64
2023/01/01 02:28:49;;;;;;;137.13;83.68;;;;;;;;;;5090354;28;20024;-64
2023/01/01 02:31:17;;;;;;;77.45;48.63;;;;;;;;;;5089652;28;20061;-64
2023/01/01 02:33:45;;;;;;;80.28;49.53;;;205.40;2252.80;;;;;;5090170;28;20035;-63
2023/01/01 02:36:12;;;;;;;63.58;39.45;;;205.30;2252.80;;;;;;5090249;28;20502;-67
2023/01/01 02:38:45;;;;;;;47.20;28.67;;;205.20;2252.80;;;;;;5090128;28;20032;-64
2023/01/01 02:41:30;;;;;;;;;;;205.20;2252.80;;;;;;5090583;28;20089;-63
2023/01/01 02:43:56;;;;;;;49.90;32.95;;;205.20;2252.80;;;;;;5089969;28;20000;-64
2023/01/01 02:46:22;;;;;;;59.90;36.15;;;;;;;;;;5090059;28;20032;-64
2023/01/01 02:48:48;;;;;;;79.90;49.03;;;;;;;;;;5089899;28;20016;-63
2023/01/01 02:51:26;;;;;;;94.07;54.55;;;;;;;;;;5089660;28;20057;-65
2023/01/01 02:53:52;;;;;;;101.60;58.90;;;;;;;;;;5089694;28;20040;-65
2023/01/01 02:56:33;;;;;;;94.30;53.85;;;;;;;;;;5089807;28;20031;-65
2023/01/01 03:01:49;;;;;;;105.53;61.67;;;;;;;;;;5089819;28;20039;-64
2023/01/01 03:04:34;;;;;;;91.32;52.63;;;;;;;;;;5090000;28;20078;-65
2023/01/01 03:07:00;;;;;;;81.68;47.58;;;;;;;;;;5089831;28;20059;-65
2023/01/01 03:09:32;;;;;;;68.95;41.58;;;;;;;;;;5089546;28;20028;-65
2023/01/01 03:12:16;;;;;;;51.53;29.58;;;;;;;;;;5089654;28;20031;-64
2023/01/01 03:14:50;;;;;;;49.10;31.60;;;;;;;;;;5089478;28;20059;-64
2023/01/01 03:17:28;;;;;;;57.03;37.88;;;;;;;;;;5089410;28;20055;-64
2023/01/01 03:19:55;;;;;;;43.88;27.90;;;;;;;;;;5089622;28;20126;-65
2023/01/01 03:22:24;;;;;;;60.50;37.47;;;;;;;;;;5090054;28;20095;-64
2023/01/01 03:24:53;;;;;;;36.95;21.85;;;;;;;;;;5089702;28;20158;-64
2023/01/01 03:27:21;;;;;;;40.75;25.42;;;;;;;;;;5089883;28;20470;-65
2023/01/01 03:29:49;;;;;;;73.05;43.58;;;;;;;;;;5093327;28;20039;-64
2023/01/01 03:32:18;;;;;;;98.65;58.92;;;;;;;;;;5092929;28;20024;-65
2023/01/01 03:34:48;;;;;;;20.30;10.65;;;;;;;;;;5093019;28;20539;-65
2023/01/01 03:37:16;;;;;;;47.95;31.70;;;;;;;;;;5093187;28;20020;-65
2023/01/01 03:39:50;;;;;;;57.45;39.45;;;;;;;;;;5092860;28;20101;-64
2023/01/01 03:42:25;;;;;;;86.53;63.00;;;;;;;;;;5093019;28;20038;-64
2023/01/01 03:45:00;;;;;;;36.55;24.95;;;;;;;;;;5093128;28;20589;-64
2023/01/01 03:47:26;;;;;;;17.77;11.90;;;;;;;;;;5092740;28;20039;-65
2023/01/01 03:49:52;;;;;;;32.22;19.70;;;;;;;;;;5093059;28;20389;-64
2023/01/01 03:52:40;;;;;;;67.25;44.28;;;;;;;;;;5092963;28;20097;-64
2023/01/01 03:55:09;;;;;;;16.23;10.30;;;;;;;;;;5010453;28;20042;-64
2023/01/01 03:57:44;;;;;;;11.35;8.27;;;;;;;;;;5010516;28;20042;-63
2023/01/01 04:00:15;;;;;;;17.10;7.90;;;;;;;;;;5010744;28;20034;-64
2023/01/01 04:02:46;;;;;;;17.55;10.70;;;;;;;;;;5010721;28;20026;-64
2023/01/01 04:05:13;;;;;;;16.85;10.50;;;;;;;;;;5010505;28;20127;-65
2023/01/01 04:07:39;;;;;;;15.52;10.30;;;;;;;;;;5010536;28;20028;-64
2023/01/01 04:10:16;;;;;;;22.02;12.90;;;205.30;2252.80;;;;;;5010273;28;20034;-63
2023/01/01 04:12:47;;;;;;;56.35;37.15;;;205.20;2252.80;;;;;;5010253;28;20042;-64
2023/01/01 04:15:13;;;;;;;24.38;16.55;;;205.10;2252.80;;;;;;5010105;28;20041;-64
2023/01/01 04:17:39;;;;;;;16.67;10.65;;;;;;;;;;5010426;28;20022;-64
2023/01/01 04:20:06;;;;;;;15.43;11.95;;;;;;;;;;5010145;28;20067;-64
2023/01/01 04:22:32;;;;;;;18.95;10.93;;;;;;;;;;5009968;28;20416;-64
2023/01/01 04:24:58;;;;;;;17.48;10.15;;;;;;;;;;5010159;28;20045;-64
2023/01/01 04:27:24;;;;;;;16.10;11.35;;;205.10;2252.80;;;;;;5010110;28;20077;-64
2023/01/01 04:29:50;;;;;;;17.65;10.95;;;205.00;2252.80;;;;;;5010318;28;20033;-64
2023/01/01 04:32:16;;;;;;;16.50;10.45;;;204.80;2252.80;;;;;;5054277;28;20090;-64
2023/01/01 04:34:42;;;;;;;22.17;9.50;;;204.90;2252.80;;;;;;5091874;28;20043;-65
2023/01/01 04:37:07;;;;;;;24.05;14.27;;;204.80;2252.80;;;;;;5092148;28;20017;-64
2023/01/01 04:39:33;;;;;;;32.60;17.92;;;204.90;2252.80;;;;;;5090758;28;20032;-64
2023/01/01 04:41:59;;;;;;;40.95;26.17;;;205.00;2252.80;;;;;;5091970;28;20062;-64
2023/01/01 04:44:24;;;;;;;54.50;32.45;;;205.00;2252.80;;;;;;5091737;28;20063;-64
2023/01/01 04:46:50;;;;;;;41.92;23.33;;;204.90;2252.80;;;;;;5092086;28;20027;-64
2023/01/01 04:49:16;;;;;;;33.92;21.70;;;204.90;2252.80;;;;;;5091800;28;20017;-64
2023/01/01 04:51:41;;;;;;;47.63;31.13;;;205.00;2252.80;;;;;;5091756;28;20103;-65
2023/01/01 04:54:07;;;;;;;53.05;30.27;;;205.00;2252.80;;;;;;5091544;28;20543;-65
2023/01/01 04:56:33;;;;;;;23.45;16.15;;;205.00;2252.80;;;;;;5091233;28;20035;-64
2023/01/01 04:58:58;;;;;;;27.20;15.88;;;204.80;2252.80;;;;;;5091735;28;20055;-64
2023/01/01 05:01:27;;;;;;;35.30;18.00;;;204.80;2252.80;;;;;;5091664;28;20442;-64
2023/01/01 05:03:53;;;;;;;18.65;9.40;;;204.80;2252.80;;;;;;5091300;28;20481;-64
2023/01/01 05:06:19;;;;;;;13.68;11.93;;;204.80;2252.80;;;;;;5091321;28;20538;-63
2023/01/01 05:08:47;;;;;;;17.77;10.65;;;180.10;2252.80;;;;;;5091070;28;20066;-64
2023/01/01 05:11:16;;;;;;;19.63;11.50;;;204.80;2252.80;;;;;;5091413;28;20039;-64
2023/01/01 05:13:44;;;;;;;23.70;12.68;;;204.80;2252.80;;;;;;5091106;28;20447;-64
2023/01/01 05:16:13;;;;;;;40.30;24.00;;;204.80;2252.80;;;;;;5091132;28;20024;-64
2023/01/01 05:18:39;;;;;;;39.42;19.02;;;180.10;2252.80;;;;;;5091280;28;20369;-64
2023/01/01 05:21:08;;;;;;;36.15;21.77;;;180.10;2252.80;;;;;;5091027;28;20492;-64
2023/01/01 05:23:34;;;;;;;23.42;13.88;;;180.10;2252.80;;;;;;5090887;28;20059;-64
2023/01/01 05:26:06;;;;;;;21.33;13.93;;;180.10;2252.80;;;;;;5091360;28;20032;-63
2023/01/01 05:28:32;;;;;;;22.67;11.70;;;180.10;2252.80;;;;;;5091135;28;20060;-64
2023/01/01 05:30:58;;;;;;;23.33;14.27;;;180.10;2252.80;;;;;;5091141;28;20427;-63
2023/01/01 05:33:23;;;;;;;16.83;11.23;;;179.90;2252.80;;;;;;5090931;28;20466;-64
2023/01/01 05:35:53;;;;;;;12.73;7.80;;;179.70;2252.80;;;;;;5090921;28;20495;-63
2023/01/01 05:38:19;;;;;;;13.65;8.75;;;179.80;2252.80;;;;;;5091283;28;20073;-63
2023/01/01 05:40:45;;;;;;;8.98;6.22;;;179.90;2252.80;;;;;;5090519;28;20111;-63
2023/01/01 05:43:10;;;;;;;14.15;8.35;;;180.00;2252.80;;;;;;5090632;28;20032;-63
2023/01/01 05:45:36;;;;;;;14.80;8.80;;;180.00;2252.80;;;;;;5090716;28;20035;-63
2023/01/01 05:48:03;;;;;;;17.00;11.10;;;180.00;2252.80;;;;;;5090482;28;20370;-65
2023/01/01 05:50:28;;;;;;;12.93;7.00;;;180.00;2252.80;;;;;;5089406;28;20034;-63
2023/01/01 05:52:54;;;;;;;8.15;4.97;;;180.00;2252.80;;;;;;5090604;28;20460;-63
2023/01/01 05:55:20;;;;;;;11.32;5.93;;;180.00;2252.80;;;;;;5090595;28;20042;-63
2023/01/01 05:57:46;;;;;;;10.48;5.78;;;180.00;2252.80;;;;;;5090462;28;20096;-64
2023/01/01 06:00:12;;;;;;;13.80;8.68;;;180.00;2252.80;;;;;;5090658;28;20462;-63
2023/01/01 06:02:38;;;;;;;13.18;9.23;;;180.00;2252.80;;;;;;5090470;28;20077;-62
2023/01/01 06:05:04;;;;;;;39.92;30.25;;;179.70;2252.80;;;;;;5090218;28;20028;-63
2023/01/01 06:07:29;;;;;;;17.13;13.00;;;179.50;2252.80;;;;;;5090467;28;20462;-63
2023/01/01 06:09:55;;;;;;;10.75;7.85;;;179.50;2252.80;;;;;;5090079;28;20039;-64
2023/01/01 06:12:21;;;;;;;8.95;7.55;;;179.60;2252.80;;;;;;5090525;28;20028;-63
2023/01/01 06:14:46;;;;;;;10.63;8.13;;;179.60;2252.80;;;;;;5090099;28;20036;-63
2023/01/01 06:17:12;;;;;;;9.73;7.07;;;179.60;2252.80;;;;;;5090031;28;20047;-64
2023/01/01 06:19:38;;;;;;;11.40;8.93;;;179.70;2252.80;;;;;;5090176;28;20024;-63
2023/01/01 06:22:04;;;;;;;11.40;10.00;;;179.80;2252.80;;;;;;5090062;28;20458;-64
2023/01/01 06:24:30;;;;;;;16.40;9.07;;;179.90;2252.80;;;;;;5090241;28;20028;-63
2023/01/01 06:26:56;;;;;;;54.80;36.67;;;179.80;2252.80;;;;;;5090121;28;20043;-63
2023/01/01 06:29:21;;;;;;;98.90;69.88;;;179.80;2252.80;;;;;;5089694;28;20073;-63
2023/01/01 06:31:47;;;;;;;27.05;19.27;;;179.80;2252.80;;;;;;5089478;28;20085;-62
2023/01/01 06:34:13;;;;;;;16.33;11.15;;;179.80;2252.80;;;;;;5089317;28;20032;-63
2023/01/01 06:36:38;;;;;;;15.65;10.82;;;179.80;2252.80;;;;;;5089463;28;20485;-62
2023/01/01 06:39:04;;;;;;;41.80;23.50;;;179.90;2252.80;;;;;;5089221;28;20106;-62
2023/01/01 06:41:30;;;;;;;531.72;260.98;;;179.90;2252.80;;;;;;5089565;28;20031;-62
2023/01/01 06:43:57;;;;;;;177.50;87.43;;;179.90;2252.80;;;;;;5089649;28;20040;-62
2023/01/01 06:46:26;;;;;;;161.30;78.40;;;179.90;2252.80;;;;;;5089463;28;20067;-62
2023/01/01 06:49:02;;;;;;;409.88;212.07;;;180.00;2252.80;;;;;;5074802;28;20038;-62
2023/01/01 06:51:29;;;;;;;461.25;259.98;;;180.10;2252.80;;;;;;5089857;28;20031;-63
2023/01/01 06:53:58;;;;;;;407.10;202.50;;;180.10;2252.80;;;;;;5089758;28;20020;-64
2023/01/01 06:56:24;;;;;;;536.38;295.13;;;204.90;2252.80;;;;;;5089890;28;20028;-63
2023/01/01 06:58:50;;;;;;;126.65;78.45;;;205.10;2252.80;;;;;;5089921;28;20378;-63
2023/01/01 07:01:18;;;;;;;152.88;78.85;;;205.20;2252.80;;;;;;5089572;28;20024;-63
2023/01/01 07:03:51;;;;;;;80.70;38.47;;;205.10;2252.80;;;;;;5091893;28;20062;-64
2023/01/01 07:06:16;;;;;;;210.80;102.43;;;205.10;2252.80;;;;;;5093803;28;20084;-63
2023/01/01 07:08:42;;;;;;;21.05;12.13;;;205.20;2252.80;;;;;;5093484;28;20119;-64
2023/01/01 07:11:08;;;;;;;44.65;24.80;;;205.40;2252.80;;;;;;5093504;28;20478;-63
2023/01/01 07:13:33;;;;;;;32.75;19.90;;;205.50;2252.80;;;;;;5093208;28;20032;-64
2023/01/01 07:15:59;;;;;;;36.72;23.15;;;205.50;2252.80;;;;;;5093594;28;20470;-63
2023/01/01 07:18:25;;;;;;;12.20;9.45;;;205.40;2252.80;;;;;;5093185;28;20024;-64
2023/01/01 07:20:55;;;;;;;129.35;69.25;;;205.30;2252.80;;;;;;5093430;28;20020;-65
2023/01/01 07:23:21;;;;;;;43.22;24.52;;;205.40;2252.80;;;;;;5093659;28;20103;-64
2023/01/01 07:25:51;;;;;;;55.22;36.08;;;205.50;2252.80;;;;;;5093537;28;20051;-63
2023/01/01 07:28:18;;;;;;;76.95;40.15;;;205.60;2252.80;;;;;;5093256;28;20027;-64
2023/01/01 07:30:44;;;;;;;37.65;27.80;;;205.70;2252.80;;;;;;5093238;28;20036;-63
2023/01/01 07:33:12;;;;;;;35.03;21.05;;;205.70;2252.80;;;;;;5093357;28;20016;-64
2023/01/01 07:35:38;;;;;;;89.65;52.25;;;230.40;2252.80;;;;;;5093047;28;20432;-64
2023/01/01 07:38:04;;;;;;;70.03;41.10;;;;;;;;;;5093141;28;20020;-64
2023/01/01 07:40:30;;;;;;;72.05;48.72;;;;;;;;;;5093126;28;20024;-63
2023/01/01 07:42:56;;;;;;;36.30;22.95;;;;;;;;;;5092835;28;20469;-64
2023/01/01 07:45:22;;;;;;;105.53;68.07;;;;;;;;;;5092944;28;20452;-64
2023/01/01 07:47:50;;;;;;;126.93;85.47;;;;;;;;;;5092855;28;20456;-64
2023/01/01 07:50:17;;;;;;;115.97;78.03;;;;;;;;;;5093011;28;20020;-64
2023/01/01 07:52:43;;;;;;;144.30;92.97;;;;;;;;;;5092925;28;20462;-64
2023/01/01 07:55:13;;;;;;;151.20;102.03;;;;;;;;;;5092956;28;20089;-63
2023/01/01 07:57:39;;;;;;;153.88;107.13;;;;;;;;;;5093044;28;20107;-64
2023/01/01 08:00:06;;;;;;;106.93;71.35;;;230.90;2252.80;;;;;;5092672;28;20409;-64
2023/01/01 08:02:32;;;;;;;135.65;87.40;;;230.80;2252.80;;;;;;5092528;28;20111;-63
2023/01/01 08:04:58;;;;;;;114.13;74.45;;;230.90;2252.80;;;;;;5092583;28;20107;-62
2023/01/01 08:07:23;;;;;;;94.80;63.22;;;230.80;2252.80;;;;;;5092558;28;20019;-64
2023/01/01 08:09:49;;;;;;;135.48;88.63;;;230.90;2252.80;;;;;;5092596;28;20432;-63
2023/01/01 08:12:15;;;;;;;256.58;144.80;;;231.00;2252.80;;;;;;5092545;28;20120;-64
2023/01/01 08:14:40;;;;;;;179.80;117.47;;;231.10;2252.80;;;;;;5092292;28;20188;-63
2023/01/01 08:17:06;;;;;;;160.07;108.75;;;231.10;2252.80;;;;;;5092450;28;20073;-63
2023/01/01 08:19:32;;;;;;;138.55;88.45;;;231.20;2252.80;;;;;;5090573;28;20086;-64
2023/01/01 08:21:57;;;;;;;140.73;93.13;;;231.30;2252.80;;;;;;5091979;28;20028;-64
2023/01/01 08:24:23;;;;;;;151.70;97.15;;;256.10;2252.80;;;;;;5092428;28;20089;-63
2023/01/01 08:26:49;;;;;;;135.65;87.57;;;256.30;2252.80;;;;;;5092206;28;20044;-63
2023/01/01 08:29:16;;;;;;;117.10;84.68;;;281.80;2278.40;;;;;;5092144;28;20229;-64
2023/01/01 08:31:41;;;;;;;139.63;93.03;;;308.10;2304.00;;;;;;5092011;28;20081;-65
2023/01/01 08:34:07;;;;;;;225.82;179.65;;;332.90;2329.60;;;;;;5092095;28;20119;-64
2023/01/01 08:36:33;;;;;;;315.85;258.00;;;307.90;2304.00;;;;;;5091841;28;20028;-64
2023/01/01 08:38:59;;;;;;;247.20;185.18;;;307.30;2304.00;;;;;;5091343;28;20470;-63
2023/01/01 08:41:25;;;;;;;283.65;223.25;;;307.20;2304.00;;;;;;5091767;28;20061;-64
2023/01/01 08:43:51;;;;;;;245.40;185.32;;;282.40;2278.40;;;;;;5091866;28;20044;-63
2023/01/01 08:46:16;;;;;;;192.80;146.85;;;307.40;2304.00;;;;;;5091645;28;20151;-63
2023/01/01 08:48:42;;;;;;;227.80;180.95;;;333.60;2329.60;;;;;;5091588;28;20107;-65
2023/01/01 08:51:09;;;;;;;195.93;165.60;;;384.70;2329.60;;;;;;5091447;28;20420;-65
2023/01/01 08:53:35;;;;;;;240.77;212.50;;;435.30;2150.40;;;;;;5091462;28;20020;-65
2023/01/01 08:56:03;;;;;;;141.90;126.60;;;461.70;2048.00;;;;;;5091635;28;20081;-66
2023/01/01 08:58:29;;;;;;;174.15;154.65;;;512.20;1868.80;;;;;;5091642;28;20024;-66
2023/01/01 09:00:56;;;;;;;158.70;141.50;;;537.60;1792.00;;;;;;5091224;28;20093;-67
2023/01/01 09:03:22;;;;;;;221.40;197.85;;;538.00;1740.80;;;;;;5091284;28;20020;-65
2023/01/01 09:05:47;;;;;;;213.50;190.52;;;537.80;1740.80;;;;;;5091321;28;20535;-65
2023/01/01 09:08:14;;;;;;;198.90;177.55;;;538.30;1689.60;;;;;;5091431;28;20028;-65
2023/01/01 09:10:43;;;;;;;148.63;133.73;;;563.30;1715.20;;;;;;5091740;28;20073;-65
2023/01/01 09:13:10;;;;;;;134.38;120.80;;;564.10;1664.00;;;;;;5091835;28;20069;-65
2023/01/01 09:15:36;;;;;;;139.25;124.57;;;589.40;1612.80;;;;;;5091264;28;20390;-65
2023/01/01 09:18:02;;;;;;;139.50;124.80;;;589.70;1561.60;;;;;;5091069;28;20073;-64
2023/01/01 09:20:28;;;;;;;133.02;119.82;;;614.80;1536.00;;;;;;5091013;28;20020;-67
2023/01/01 09:22:53;;;;;;;192.05;165.52;;;615.20;1484.80;;;;;;5091066;28;20032;-64
2023/01/01 09:25:19;;;;;;;222.05;173.90;;;640.20;1459.20;;;;;;5090648;28;20162;-64
2023/01/01 09:27:45;;;;;;;132.13;113.85;;;640.40;1459.20;;;;;;5090686;28;20024;-64
2023/01/01 09:30:11;;;;;;;174.75;137.57;;;615.20;1484.80;;;;;;5090997;28;20027;-64
2023/01/01 09:32:37;;;;;;;109.97;97.90;;;614.80;1510.40;;;;;;5091073;28;20420;-64
2023/01/01 09:35:04;;;;;;;124.32;110.65;;;589.20;1561.60;;;;;;5090649;28;20032;-65
2023/01/01 09:37:30;;;;;;;135.48;114.80;;;538.50;1638.40;;;;;;5090836;28;20102;-66
2023/01/01 09:39:56;;;;;;;173.25;148.20;;;512.50;1715.20;;;;;;5090479;28;20043;-64
2023/01/01 09:42:30;;;;;;;97.05;81.85;;;486.90;1766.40;;;;;;5091113;28;20028;-64
2023/01/01 09:45:02;;;;;;;90.88;71.85;;;461.40;1817.60;;;;;;5090194;28;20055;-65
2023/01/01 09:47:38;;;;;;;116.28;88.10;;;435.90;1868.80;;;;;;5090791;28;20019;-66
2023/01/01 09:50:28;;;;;;;65.18;44.97;;;435.30;1945.60;;;;;;5090334;28;20488;-64
2023/01/01 09:53:09;;;;;;;44.63;32.47;;;410.20;1971.20;;;;;;5090767;28;20032;-65
2023/01/01 09:55:45;;;;;;;77.90;58.25;;;409.60;1996.80;;;;;;5090631;28;20105;-64
2023/01/01 09:58:12;;;;;;;152.65;117.20;;;384.80;2022.40;;;;;;5090699;28;20073;-64
2023/01/01 10:00:47;;;;;;;188.60;145.48;;;384.50;2099.20;;;;;;5090288;28;20059;-63
2023/01/01 10:03:25;;;;;;;193.75;154.27;;;384.10;2124.80;;;;;;5090183;28;20039;-64
2023/01/01 10:06:03;;;;;;;146.52;112.85;;;359.30;2176.00;;;;;;5090560;28;20038;-64
2023/01/01 10:08:43;;;;;;;119.00;89.57;;;359.10;2227.20;;;;;;5090261;28;20020;-63
2023/01/01 10:11:53;;;;;;;144.60;113.43;;;359.00;2278.40;;;;;;5090270;28;20030;-63
2023/01/01 10:14:32;;;;;;;124.28;100.70;;;358.90;2329.60;;;;;;5090269;28;20036;-64
2023/01/01 10:17:02;;;;;;;121.20;91.13;;;358.90;2329.60;;;;;;5090216;28;20043;-60
2023/01/01 10:19:37;;;;;;;95.57;75.90;;;358.80;2329.60;;;;;;5090124;28;20034;-63
2023/01/01 10:22:12;;;;;;;100.15;79.18;;;358.90;2329.60;;;;;;5090115;28;20022;-64
2023/01/01 10:24:45;;;;;;;98.47;72.20;;;358.90;2329.60;;;;;;5090089;28;20032;-63
2023/01/01 10:27:28;;;;;;;83.93;61.67;;;358.90;2329.60;;;;;;5090234;28;20474;-64
2023/01/01 10:29:54;;;;;;;84.97;58.13;;;359.00;2329.60;;;;;;5089997;28;20058;-65
2023/01/01 10:32:31;;;;;;;77.57;56.42;;;359.00;2329.60;;;;;;5090490;28;20034;-63
2023/01/01 10:34:58;;;;;;;70.50;55.97;;;359.20;2329.60;;;;;;5090090;28;20036;-60
2023/01/01 10:37:33;;;;;;;72.13;52.03;;;359.10;2329.60;;;;;;5090221;28;20028;-60
2023/01/01 10:40:08;;;;;;;74.63;53.17;;;359.20;2329.60;;;;;;5094252;28;20024;-59
2023/01/01 10:42:34;;;;;;;62.38;47.38;;;384.00;2329.60;;;;;;5093967;28;20108;-60
2023/01/01 10:45:04;;;;;;;55.30;40.38;;;384.00;2329.60;;;;;;5093505;28;20495;-63
2023/01/01 10:47:29;;;;;;;64.22;43.45;;;384.00;2329.60;;;;;;5094274;28;20023;-61
2023/01/01 10:50:06;;;;;;;61.33;42.22;;;359.30;2329.60;;;;;;5094284;28;20516;-61
2023/01/01 10:52:41;;;;;;;47.47;36.05;;;359.20;2329.60;;;;;;5094024;28;20089;-60
2023/01/01 10:55:22;;;;;;;43.40;32.63;;;359.30;2329.60;;;;;;5093681;28;20512;-62
2023/01/01 10:57:48;;;;;;;65.63;43.20;;;384.00;2329.60;;;;;;5094068;28;20026;-60
2023/01/01 11:00:25;;;;;;;55.75;42.25;;;384.00;2329.60;;;;;;5093610;28;20032;-60
2023/01/01 11:03:20;;;;;;;54.00;38.17;;;384.10;2329.60;;;;;;5093719;28;20382;-61
2023/01/01 11:06:14;;;;;;;47.67;34.80;;;384.10;2329.60;;;;;;5093600;28;20093;-65
2023/01/01 11:08:45;;;;;;;;;;;384.10;2329.60;;;;;;5094291;28;20099;-59
2023/01/01 11:11:29;;;;;;;43.75;30.77;;;384.10;2329.60;;;;;;5093844;28;19914;-60
2023/01/01 11:14:03;;;;;;;30.90;21.27;;;384.10;2329.60;;;;;;5092640;28;20024;-69
2023/01/01 11:16:29;;;;;;;41.17;29.50;;;384.10;2329.60;;;;;;5092115;28;20040;-62
2023/01/01 11:19:06;;;;;;;27.48;20.02;;;384.20;2329.60;;;;;;5091900;28;20020;-67
2023/01/01 11:21:33;;;;;;;24.00;18.75;;;384.30;2329.60;;;;;;5091872;28;20128;-62
2023/01/01 11:24:20;;;;;;;27.40;18.00;;;384.40;2329.60;;;;;;5091983;28;20543;-61
2023/01/01 11:26:47;;;;;;;26.92;19.20;;;384.40;2329.60;;;;;;5091576;28;20024;-63
2023/01/01 11:29:15;;;;;;;24.48;15.07;;;384.60;2329.60;;;;;;5091200;28;20031;-65
2023/01/01 11:31:44;;;;;;;25.58;16.75;;;384.70;2329.60;;;;;;5091826;28;20110;-65
2023/01/01 11:34:35;;;;;;;32.47;19.52;;;384.70;2329.60;;;;;;5091623;28;20032;-65
2023/01/01 11:37:28;;;;;;;29.13;20.35;;;384.60;2329.60;;;;;;5008917;28;20411;-67
2023/01/01 11:39:56;;;;;;;36.97;27.52;;;384.70;2329.60;;;;;;5008798;28;20508;-64
2023/01/01 11:42:31;;;;;;;43.97;28.92;;;384.70;2329.60;;;;;;5008419;28;20050;-62
2023/01/01 11:45:00;;;;;;;41.17;28.30;;;384.70;2329.60;;;;;;5007962;28;20045;-62
2023/01/01 11:47:40;;;;;;;34.42;25.25;;;384.70;2329.60;;;;;;5008747;28;20639;-62
2023/01/01 11:50:22;;;;;;;29.40;22.48;;;384.80;2329.60;;;;;;5008262;28;20543;-69
2023/01/01 11:52:50;;;;;;;19.65;13.73;;;384.80;2329.60;;;;;;5008942;28;20041;-61
2023/01/01 11:55:24;;;;;;;22.13;17.58;;;384.80;2278.40;;;;;;5008084;28;20084;-64
2023/01/01 11:58:25;;;;;;;31.52;24.08;;;384.90;2304.00;;;;;;5008948;28;20033;-61
2023/01/01 12:00:55;;;;;;;25.30;17.42;;;409.60;2355.20;;;;;;4950528;29;20071;-67
2023/01/01 12:03:48;;;;;;;98.55;63.63;;;409.60;2355.20;;;;;;4950371;29;20094;-63
2023/01/01 12:06:22;;;;;;;33.58;24.80;;;409.70;2355.20;;;;;;4911594;29;20112;-68
2023/01/01 12:09:20;;;;;;;29.50;21.98;;;409.70;2355.20;;;;;;4912186;29;20086;-70
2023/01/01 12:11:51;;;;;;;35.00;24.05;;;409.70;2329.60;;;;;;4911984;29;20127;-63
2023/01/01 12:14:37;;;;;;;49.42;36.08;;;410.00;2329.60;;;;;;4923499;29;20216;-69
2023/01/01 12:17:11;;;;;;;33.03;25.05;;;409.80;2329.60;;;;;;4931146;29;20054;-62
2023/01/01 12:19:54;;;;;;;53.47;36.65;;;409.80;2329.60;;;;;;4930365;29;20119;-62
2023/01/01 12:22:20;;;;;;;37.42;26.48;;;409.80;2329.60;;;;;;4930950;29;20028;-70
2023/01/01 12:24:47;;;;;;;44.58;34.90;;;409.80;2329.60;;;;;;4930822;29;20050;-67
2023/01/01 12:27:15;;;;;;;48.65;38.08;;;410.00;2355.20;;;;;;4930797;29;20032;-65
2023/01/01 12:29:50;;;;;;;52.42;37.58;;;410.00;2329.60;;;;;;4930793;29;20043;-61
2023/01/01 12:32:27;;;;;;;51.80;40.28;;;410.00;2329.60;;;;;;4930371;29;20023;-62